createdAt,value
2022-12-27T00:01:30.850Z,100.00
2022-12-27T00:03:57.401Z,100.00
2022-12-27T00:06:26.138Z,100.00
2022-12-27T00:08:53.144Z,100.00
2022-12-27T00:11:22.857Z,100.00
2022-12-27T00:13:49.769Z,100.00
2022-12-27T00:16:19.104Z,100.00
2022-12-27T00:18:46.562Z,100.00
2022-12-27T00:21:14.071Z,100.00
2022-12-27T00:23:45.070Z,100.00
2022-12-27T00:26:14.714Z,100.00
2022-12-27T00:28:41.239Z,100.00
2022-12-27T00:31:08.420Z,100.00
2022-12-27T00:33:36.716Z,100.00
2022-12-27T00:36:05.262Z,100.00
2022-12-27T00:38:32.556Z,100.00
2022-12-27T00:40:59.729Z,100.00
2022-12-27T00:43:26.431Z,100.00
2022-12-27T00:45:53.496Z,100.00
2022-12-27T00:48:19.956Z,100.00
2022-12-27T00:50:47.131Z,100.00
2022-12-27T00:53:14.403Z,100.00
2022-12-27T00:55:45.091Z,100.00
2022-12-27T00:58:11.730Z,100.00
2022-12-27T01:00:38.167Z,100.00
2022-12-27T01:03:04.545Z,100.00
2022-12-27T01:05:31.053Z,100.00
2022-12-27T01:07:57.463Z,100.00
2022-12-27T01:10:24.584Z,100.00
2022-12-27T01:12:50.964Z,100.00
2022-12-27T01:15:17.401Z,100.00
2022-12-27T01:17:43.786Z,100.00
2022-12-27T01:20:10.533Z,100.00
2022-12-27T01:22:36.970Z,100.00
2022-12-27T01:25:03.709Z,100.00
2022-12-27T01:27:30.089Z,100.00
2022-12-27T01:29:56.518Z,100.00
2022-12-27T01:32:22.945Z,100.00
2022-12-27T01:34:50.903Z,100.00
2022-12-27T01:37:17.324Z,100.00
2022-12-27T01:39:43.707Z,100.00
2022-12-27T01:42:35.598Z,100.00
2022-12-27T01:45:02.673Z,100.00
2022-12-27T01:47:54.611Z,100.00
2022-12-27T01:50:24.004Z,100.00
2022-12-27T01:53:21.473Z,100.00
2022-12-27T01:56:20.559Z,100.00
2022-12-27T01:58:55.844Z,100.00
2022-12-27T02:01:28.887Z,100.00
2022-12-27T02:04:09.041Z,100.00
2022-12-27T02:06:38.449Z,100.00
2022-12-27T02:09:23.059Z,100.00
2022-12-27T02:11:56.330Z,100.00
2022-12-27T02:14:33.299Z,100.00
2022-12-27T02:17:03.115Z,100.00
2022-12-27T02:19:41.412Z,100.00
2022-12-27T02:22:19.917Z,100.00
2022-12-27T02:25:12.867Z,100.00
2022-12-27T02:27:57.307Z,100.00
2022-12-27T02:30:24.225Z,100.00
2022-12-27T02:33:03.353Z,100.00
2022-12-27T02:35:53.899Z,100.00
2022-12-27T02:38:34.970Z,100.00
2022-12-27T02:41:22.827Z,100.00
2022-12-27T02:44:07.656Z,100.00
2022-12-27T02:46:53.107Z,100.00
2022-12-27T02:49:45.805Z,100.00
2022-12-27T02:52:50.551Z,100.00
2022-12-27T02:55:35.911Z,100.00
2022-12-27T02:58:59.964Z,100.00
2022-12-27T03:02:06.429Z,100.00
2022-12-27T03:04:57.653Z,100.00
2022-12-27T03:07:42.861Z,100.00
2022-12-27T03:11:00.668Z,100.00
2022-12-27T03:14:01.222Z,100.00
2022-12-27T03:16:57.980Z,100.00
2022-12-27T03:20:09.330Z,100.00
2022-12-27T03:22:57.954Z,100.00
2022-12-27T03:25:28.689Z,100.00
2022-12-27T03:28:28.765Z,100.00
2022-12-27T03:31:21.157Z,100.00
2022-12-27T03:33:50.197Z,100.00
2022-12-27T03:36:40.493Z,100.00
2022-12-27T03:39:16.565Z,100.00
2022-12-27T03:42:09.503Z,100.00
2022-12-27T03:44:36.044Z,100.00
2022-12-27T03:47:12.688Z,100.00
2022-12-27T03:49:45.198Z,100.00
2022-12-27T03:52:23.827Z,100.00
2022-12-27T03:54:51.884Z,100.00
2022-12-27T03:57:21.535Z,100.00
2022-12-27T03:59:47.980Z,100.00
2022-12-27T04:02:14.759Z,100.00
2022-12-27T04:04:41.580Z,100.00
2022-12-27T04:07:08.053Z,100.00
2022-12-27T04:09:52.868Z,100.00
2022-12-27T04:12:37.919Z,100.00
2022-12-27T04:15:23.793Z,100.00
2022-12-27T04:18:08.963Z,100.00
2022-12-27T04:20:53.755Z,100.00
2022-12-27T04:23:38.631Z,100.00
2022-12-27T04:26:23.673Z,100.00
2022-12-27T04:29:09.038Z,100.00
2022-12-27T04:31:53.915Z,100.00
2022-12-27T04:34:39.076Z,100.00
2022-12-27T04:37:06.047Z,100.00
2022-12-27T04:39:32.618Z,100.00
2022-12-27T04:42:17.647Z,100.00
2022-12-27T04:45:02.527Z,100.00
2022-12-27T04:47:47.789Z,100.00
2022-12-27T04:50:53.332Z,100.00
2022-12-27T04:53:40.162Z,100.00
2022-12-27T04:56:07.219Z,100.00
2022-12-27T04:58:34.642Z,100.00
2022-12-27T05:01:21.861Z,100.00
2022-12-27T05:03:50.796Z,100.00
2022-12-27T05:06:18.701Z,100.00
2022-12-27T05:09:04.047Z,100.00
2022-12-27T05:11:49.300Z,100.00
2022-12-27T05:14:15.942Z,100.00
2022-12-27T05:16:44.220Z,100.00
2022-12-27T05:19:12.953Z,100.00
2022-12-27T05:22:03.081Z,100.00
2022-12-27T05:24:48.776Z,100.00
2022-12-27T05:27:15.702Z,100.00
2022-12-27T05:29:42.139Z,100.00
2022-12-27T05:32:13.082Z,100.00
2022-12-27T05:34:40.260Z,100.00
2022-12-27T05:37:06.662Z,100.00
2022-12-27T05:39:33.103Z,100.00
2022-12-27T05:41:59.457Z,100.00
2022-12-27T05:44:25.861Z,100.00
2022-12-27T05:46:54.149Z,100.00
2022-12-27T05:49:20.616Z,100.00
2022-12-27T05:51:47.210Z,100.00
2022-12-27T05:54:13.608Z,100.00
2022-12-27T05:56:40.033Z,100.00
2022-12-27T05:59:08.048Z,100.00
2022-12-27T06:01:34.764Z,100.00
2022-12-27T06:04:01.254Z,100.00
2022-12-27T06:06:28.835Z,100.00
2022-12-27T06:08:55.252Z,100.00
2022-12-27T06:11:21.682Z,100.00
2022-12-27T06:13:51.368Z,100.00
2022-12-27T06:16:19.056Z,100.00
2022-12-27T06:18:45.601Z,100.00
2022-12-27T06:21:20.691Z,100.00
2022-12-27T06:23:48.139Z,100.00
2022-12-27T06:26:20.944Z,100.00
2022-12-27T06:28:49.578Z,100.00
2022-12-27T06:31:17.246Z,100.00
2022-12-27T06:33:43.655Z,100.00
2022-12-27T06:36:12.907Z,100.00
2022-12-27T06:38:40.001Z,100.00
2022-12-27T06:41:09.488Z,100.00
2022-12-27T06:43:36.183Z,100.00
2022-12-27T06:46:06.076Z,100.00
2022-12-27T06:48:32.937Z,100.00
2022-12-27T06:50:59.689Z,100.00
2022-12-27T06:53:27.197Z,100.00
2022-12-27T06:55:53.642Z,100.00
2022-12-27T06:58:20.070Z,100.00
2022-12-27T07:00:46.609Z,100.00
2022-12-27T07:03:13.130Z,100.00
2022-12-27T07:05:39.599Z,100.00
2022-12-27T07:08:06.317Z,100.00
2022-12-27T07:10:32.712Z,100.00
2022-12-27T07:12:59.366Z,100.00
2022-12-27T07:15:25.818Z,100.00
2022-12-27T07:17:52.278Z,100.00
2022-12-27T07:20:18.802Z,100.00
2022-12-27T07:22:45.235Z,100.00
2022-12-27T07:25:11.691Z,100.00
2022-12-27T07:27:38.172Z,100.00
2022-12-27T07:30:05.511Z,100.00
2022-12-27T07:32:32.028Z,100.00
2022-12-27T07:34:58.390Z,100.00
2022-12-27T07:37:24.814Z,100.00
2022-12-27T07:39:51.212Z,100.00
2022-12-27T07:42:17.659Z,100.00
2022-12-27T07:44:44.011Z,100.00
2022-12-27T07:47:10.499Z,100.00
2022-12-27T07:49:36.919Z,100.00
2022-12-27T07:52:03.393Z,100.00
2022-12-27T07:54:29.765Z,100.00
2022-12-27T07:56:56.141Z,100.00
2022-12-27T07:59:22.496Z,100.00
2022-12-27T08:02:07.302Z,100.00
2022-12-27T08:04:37.060Z,100.00
2022-12-27T08:07:08.440Z,100.00
2022-12-27T08:09:38.725Z,100.00
2022-12-27T08:12:05.998Z,100.00
2022-12-27T08:14:32.545Z,100.00
2022-12-27T08:17:04.745Z,100.00
2022-12-27T08:19:31.320Z,100.00
2022-12-27T08:21:57.710Z,100.00
2022-12-27T08:24:24.879Z,100.00
2022-12-27T08:26:51.259Z,100.00
2022-12-27T08:29:17.625Z,100.00
2022-12-27T08:31:44.072Z,100.00
2022-12-27T08:34:10.449Z,100.00
2022-12-27T08:36:54.833Z,100.00
2022-12-27T08:39:21.873Z,100.00
2022-12-27T08:41:48.364Z,100.00
2022-12-27T08:44:15.367Z,100.00
2022-12-27T08:46:41.818Z,100.00
2022-12-27T08:49:08.228Z,100.00
2022-12-27T08:51:40.689Z,100.00
2022-12-27T08:54:07.932Z,100.00
2022-12-27T08:56:34.348Z,100.00
2022-12-27T08:59:00.865Z,100.00
2022-12-27T09:01:27.588Z,100.00
2022-12-27T09:03:54.113Z,100.00
2022-12-27T09:06:23.082Z,100.00
2022-12-27T09:08:50.851Z,100.00
2022-12-27T09:11:23.810Z,100.00
2022-12-27T09:13:50.560Z,100.00
2022-12-27T09:16:20.574Z,100.00
2022-12-27T09:18:50.357Z,100.00
2022-12-27T09:21:18.288Z,100.00
2022-12-27T09:23:45.542Z,100.00
2022-12-27T09:26:29.140Z,100.00
2022-12-27T09:28:56.635Z,100.00
2022-12-27T09:31:24.690Z,100.00
2022-12-27T09:33:52.479Z,100.00
2022-12-27T09:36:22.081Z,100.00
2022-12-27T09:38:49.871Z,100.00
2022-12-27T09:44:52.654Z,100.00
2022-12-27T09:47:28.398Z,100.00
2022-12-27T09:50:03.433Z,100.00
2022-12-27T09:52:41.900Z,100.00
2022-12-27T09:55:32.851Z,100.00
2022-12-27T09:58:15.984Z,100.00
2022-12-27T10:00:46.378Z,100.00
2022-12-27T10:03:13.197Z,100.00
2022-12-27T10:05:42.196Z,100.00
2022-12-27T10:08:42.706Z,100.00
2022-12-27T10:11:37.541Z,100.00
2022-12-27T10:14:13.152Z,100.00
2022-12-27T10:16:48.609Z,100.00
2022-12-27T10:19:20.883Z,100.00
2022-12-27T10:22:01.044Z,100.00
2022-12-27T10:24:39.732Z,100.00
2022-12-27T10:27:20.705Z,100.00
2022-12-27T10:29:48.792Z,100.00
2022-12-27T10:32:16.126Z,100.00
2022-12-27T10:34:42.688Z,100.00
2022-12-27T10:37:15.667Z,100.00
2022-12-27T10:39:42.917Z,100.00
2022-12-27T10:42:35.516Z,100.00
2022-12-27T10:45:30.169Z,100.00
2022-12-27T10:48:00.150Z,100.00
2022-12-27T10:50:29.294Z,100.00
2022-12-27T10:52:57.641Z,100.00
2022-12-27T10:55:38.126Z,100.00
2022-12-27T10:58:26.470Z,100.00
2022-12-27T11:00:55.203Z,100.00
2022-12-27T11:03:22.072Z,100.00
2022-12-27T11:06:00.728Z,99.86
2022-12-27T11:08:27.429Z,100.00
2022-12-27T11:11:12.765Z,96.67
2022-12-27T11:13:39.892Z,100.00
2022-12-27T11:16:13.229Z,100.00
2022-12-27T11:18:46.542Z,87.90
2022-12-27T11:21:23.899Z,91.79
2022-12-27T11:23:56.784Z,84.94
2022-12-27T11:26:30.660Z,84.29
2022-12-27T11:29:00.471Z,81.82
2022-12-27T11:31:40.361Z,75.58
2022-12-27T11:34:15.279Z,74.60
2022-12-27T11:36:45.475Z,77.23
2022-12-27T11:39:44.496Z,63.62
2022-12-27T11:42:21.799Z,67.19
2022-12-27T11:45:04.811Z,60.31
2022-12-27T11:47:45.150Z,60.40
2022-12-27T11:50:24.576Z,62.60
2022-12-27T11:53:28.578Z,60.11
2022-12-27T11:56:24.153Z,60.48
2022-12-27T11:59:20.876Z,59.72
2022-12-27T12:01:53.402Z,60.23
2022-12-27T12:04:41.818Z,58.89
2022-12-27T12:07:20.340Z,59.10
2022-12-27T12:10:05.401Z,61.90
2022-12-27T12:13:15.752Z,56.72
2022-12-27T12:15:55.597Z,56.27
2022-12-27T12:18:45.276Z,55.63
2022-12-27T12:21:34.850Z,56.70
2022-12-27T12:24:03.962Z,60.44
2022-12-27T12:26:56.100Z,57.16
2022-12-27T12:29:37.602Z,57.63
2022-12-27T12:32:45.418Z,58.64
2022-12-27T12:35:32.971Z,56.89
2022-12-27T12:38:05.600Z,56.70
2022-12-27T12:41:01.437Z,55.75
2022-12-27T12:44:00.110Z,57.64
2022-12-27T12:46:36.606Z,60.27
2022-12-27T12:49:24.134Z,57.41
2022-12-27T12:52:23.613Z,55.44
2022-12-27T12:55:19.744Z,56.74
2022-12-27T12:58:06.546Z,56.53
2022-12-27T13:01:27.303Z,54.08
2022-12-27T13:04:10.773Z,55.82
2022-12-27T13:07:17.881Z,55.75
2022-12-27T13:09:44.326Z,57.65
2022-12-27T13:12:18.513Z,58.86
2022-12-27T13:15:23.345Z,58.72
2022-12-27T13:18:03.412Z,60.97
2022-12-27T13:20:36.012Z,61.87
2022-12-27T13:23:12.258Z,65.00
2022-12-27T13:25:53.767Z,68.26
2022-12-27T13:28:51.140Z,71.21
2022-12-27T13:31:29.682Z,73.26
2022-12-27T13:34:26.675Z,76.41
2022-12-27T13:37:29.779Z,79.48
2022-12-27T13:40:16.673Z,83.87
2022-12-27T13:43:10.987Z,85.42
2022-12-27T13:45:43.310Z,86.42
2022-12-27T13:48:16.264Z,85.03
2022-12-27T13:50:48.486Z,88.98
2022-12-27T13:53:27.374Z,86.92
2022-12-27T13:56:52.729Z,84.54
2022-12-27T13:59:42.313Z,85.86
2022-12-27T14:02:23.149Z,80.05
2022-12-27T14:05:01.859Z,75.77
2022-12-27T14:07:40.760Z,73.42
2022-12-27T14:10:19.430Z,73.17
2022-12-27T14:13:12.763Z,71.05
2022-12-27T14:15:57.979Z,69.67
2022-12-27T14:18:44.489Z,70.84
2022-12-27T14:21:19.788Z,70.47
2022-12-27T14:24:20.737Z,70.08
2022-12-27T14:27:21.079Z,69.57
2022-12-27T14:30:06.322Z,71.92
2022-12-27T14:33:03.357Z,70.92
2022-12-27T14:35:38.956Z,70.44
2022-12-27T14:38:29.290Z,71.28
2022-12-27T14:41:20.710Z,69.84
2022-12-27T14:44:25.229Z,71.21
2022-12-27T14:47:19.393Z,70.58
2022-12-27T14:49:51.751Z,72.58
2022-12-27T14:52:55.864Z,72.61
2022-12-27T14:55:35.918Z,73.19
2022-12-27T14:58:04.921Z,74.44
2022-12-27T15:00:53.339Z,75.57
2022-12-27T15:03:41.459Z,78.23
2022-12-27T15:06:40.077Z,83.71
2022-12-27T15:09:27.911Z,84.50
2022-12-27T15:12:21.833Z,88.41
2022-12-27T15:15:01.170Z,88.85
2022-12-27T15:17:39.442Z,90.53
2022-12-27T15:20:20.614Z,96.08
2022-12-27T15:22:49.824Z,97.40
2022-12-27T15:25:35.241Z,100.00
2022-12-27T15:28:17.061Z,99.85
2022-12-27T15:31:20.710Z,100.00
2022-12-27T15:34:08.659Z,100.00
2022-12-27T15:36:47.049Z,100.00
2022-12-27T15:39:32.268Z,100.00
2022-12-27T15:42:02.623Z,100.00
2022-12-27T15:44:43.185Z,100.00
2022-12-27T15:47:39.141Z,100.00
2022-12-27T15:50:28.999Z,100.00
2022-12-27T15:53:25.308Z,100.00
2022-12-27T15:56:08.693Z,100.00
2022-12-27T15:58:35.371Z,100.00
2022-12-27T16:01:22.116Z,100.00
2022-12-27T16:03:53.251Z,100.00
2022-12-27T16:06:34.628Z,100.00
2022-12-27T16:09:23.234Z,100.00
2022-12-27T16:12:01.985Z,100.00
2022-12-27T16:14:40.616Z,100.00
2022-12-27T16:17:31.222Z,100.00
2022-12-27T16:20:21.323Z,100.00
2022-12-27T16:22:50.846Z,100.00
2022-12-27T16:25:37.117Z,100.00
2022-12-27T16:28:07.775Z,100.00
2022-12-27T16:30:55.511Z,100.00
2022-12-27T16:33:33.441Z,100.00
2022-12-27T16:36:11.858Z,100.00
2022-12-27T16:39:04.619Z,100.00
2022-12-27T16:41:54.551Z,100.00
2022-12-27T16:44:23.700Z,100.00
2022-12-27T16:46:56.410Z,100.00
2022-12-27T16:49:28.778Z,100.00
2022-12-27T16:52:13.281Z,100.00
2022-12-27T16:55:08.184Z,100.00
2022-12-27T16:57:42.007Z,100.00
2022-12-27T17:00:08.468Z,100.00
2022-12-27T17:02:39.837Z,100.00
2022-12-27T17:05:15.236Z,100.00
2022-12-27T17:08:09.466Z,100.00
2022-12-27T17:10:50.856Z,100.00
2022-12-27T17:13:27.901Z,100.00
2022-12-27T17:16:12.665Z,100.00
2022-12-27T17:18:50.603Z,100.00
2022-12-27T17:21:30.948Z,100.00
2022-12-27T17:24:00.321Z,100.00
2022-12-27T17:26:47.001Z,100.00
2022-12-27T17:29:51.360Z,100.00
2022-12-27T17:32:51.823Z,100.00
2022-12-27T17:35:42.945Z,100.00
2022-12-27T17:38:44.433Z,100.00
2022-12-27T17:41:52.281Z,100.00
2022-12-27T17:44:37.990Z,100.00
2022-12-27T17:47:31.203Z,100.00
2022-12-27T17:50:14.403Z,100.00
2022-12-27T17:52:59.526Z,100.00
2022-12-27T17:55:47.592Z,100.00
2022-12-27T17:58:16.376Z,100.00
2022-12-27T18:00:57.204Z,100.00
2022-12-27T18:03:32.723Z,100.00
2022-12-27T18:05:59.225Z,100.00
2022-12-27T18:08:29.464Z,100.00
2022-12-27T18:11:01.467Z,100.00
2022-12-27T18:13:33.166Z,100.00
2022-12-27T18:16:05.568Z,100.00
2022-12-27T18:18:34.169Z,100.00
2022-12-27T18:21:05.807Z,100.00
2022-12-27T18:23:43.088Z,100.00
2022-12-27T18:26:13.447Z,100.00
2022-12-27T18:28:41.492Z,100.00
2022-12-27T18:31:35.281Z,100.00
2022-12-27T18:34:23.462Z,100.00
2022-12-27T18:37:00.884Z,100.00
2022-12-27T18:39:33.906Z,100.00
2022-12-27T18:42:11.922Z,100.00
2022-12-27T18:44:46.344Z,100.00
2022-12-27T18:47:27.232Z,100.00
2022-12-27T18:50:01.023Z,100.00
2022-12-27T18:52:34.702Z,100.00
2022-12-27T18:55:14.338Z,100.00
2022-12-27T18:57:40.977Z,100.00
2022-12-27T19:00:13.675Z,100.00
2022-12-27T19:02:42.175Z,100.00
2022-12-27T19:05:17.309Z,100.00
2022-12-27T19:07:43.836Z,100.00
2022-12-27T19:10:20.683Z,100.00
2022-12-27T19:12:47.632Z,100.00
2022-12-27T19:15:24.869Z,100.00
2022-12-27T19:17:55.082Z,100.00
2022-12-27T19:20:34.662Z,100.00
2022-12-27T19:23:05.054Z,100.00
2022-12-27T19:25:37.495Z,100.00
2022-12-27T19:28:09.961Z,100.00
2022-12-27T19:30:42.037Z,100.00
2022-12-27T19:33:15.329Z,100.00
2022-12-27T19:35:42.695Z,100.00
2022-12-27T19:38:20.638Z,100.00
2022-12-27T19:40:50.622Z,100.00
2022-12-27T19:43:18.086Z,100.00
2022-12-27T19:45:44.542Z,100.00
2022-12-27T19:48:11.540Z,100.00
2022-12-27T19:50:43.157Z,100.00
2022-12-27T19:53:15.363Z,100.00
2022-12-27T19:55:41.929Z,100.00
2022-12-27T19:58:27.846Z,100.00
2022-12-27T20:00:55.393Z,100.00
2022-12-27T20:03:21.887Z,100.00
2022-12-27T20:06:12.669Z,100.00
2022-12-27T20:08:42.710Z,100.00
2022-12-27T20:11:14.613Z,100.00
2022-12-27T20:13:41.516Z,100.00
2022-12-27T20:16:10.887Z,100.00
2022-12-27T20:18:38.701Z,100.00
2022-12-27T20:21:05.962Z,100.00
2022-12-27T20:23:32.609Z,100.00
2022-12-27T20:25:59.143Z,100.00
2022-12-27T20:28:25.565Z,100.00
2022-12-27T20:30:52.040Z,100.00
2022-12-27T20:33:18.447Z,100.00
2022-12-27T20:35:45.471Z,100.00
2022-12-27T20:38:12.384Z,100.00
2022-12-27T20:40:40.501Z,100.00
2022-12-27T20:43:06.914Z,100.00
2022-12-27T20:45:34.241Z,100.00
2022-12-27T20:48:00.717Z,100.00
2022-12-27T20:50:27.152Z,100.00
2022-12-27T20:52:53.571Z,100.00
2022-12-27T20:55:19.923Z,100.00
2022-12-27T20:57:46.353Z,100.00
2022-12-27T21:00:14.455Z,100.00
2022-12-27T21:02:41.139Z,100.00
2022-12-27T21:05:08.351Z,100.00
2022-12-27T21:07:35.319Z,100.00
2022-12-27T21:10:02.107Z,100.00
2022-12-27T21:12:28.546Z,100.00
2022-12-27T21:14:54.974Z,100.00
2022-12-27T21:17:21.337Z,100.00
2022-12-27T21:19:47.758Z,100.00
2022-12-27T21:22:14.192Z,100.00
2022-12-27T21:24:40.636Z,100.00
2022-12-27T21:27:07.036Z,100.00
2022-12-27T21:29:33.451Z,100.00
2022-12-27T21:32:01.445Z,100.00
2022-12-27T21:34:28.041Z,100.00
2022-12-27T21:36:54.435Z,100.00
2022-12-27T21:39:20.834Z,100.00
2022-12-27T21:41:47.257Z,100.00
2022-12-27T21:44:13.668Z,100.00
2022-12-27T21:46:42.053Z,100.00
2022-12-27T21:49:12.358Z,100.00
2022-12-27T21:51:40.976Z,100.00
2022-12-27T21:54:08.070Z,100.00
2022-12-27T21:56:34.508Z,100.00
2022-12-27T21:59:02.919Z,100.00
2022-12-27T22:01:50.610Z,100.00
2022-12-27T22:04:17.924Z,100.00
2022-12-27T22:06:47.164Z,100.00
2022-12-27T22:09:14.233Z,100.00
2022-12-27T22:11:40.689Z,100.00
2022-12-27T22:14:07.202Z,100.00
2022-12-27T22:16:36.519Z,100.00
2022-12-27T22:19:06.137Z,100.00
2022-12-27T22:21:34.416Z,100.00
2022-12-27T22:24:02.273Z,100.00
2022-12-27T22:26:31.596Z,100.00
2022-12-27T22:28:58.096Z,100.00
2022-12-27T22:31:27.596Z,100.00
2022-12-27T22:33:54.063Z,100.00
2022-12-27T22:36:26.355Z,100.00
2022-12-27T22:38:55.839Z,100.00
2022-12-27T22:41:26.033Z,100.00
2022-12-27T22:44:04.371Z,100.00
2022-12-27T22:46:51.341Z,100.00
2022-12-27T22:49:18.113Z,100.00
2022-12-27T22:51:45.053Z,100.00
2022-12-27T22:54:11.452Z,100.00
2022-12-27T22:56:40.226Z,100.00
2022-12-27T22:59:08.345Z,100.00
2022-12-27T23:01:35.357Z,100.00
2022-12-27T23:04:05.129Z,100.00
2022-12-27T23:06:33.990Z,100.00
2022-12-27T23:09:01.194Z,100.00
2022-12-27T23:11:30.698Z,100.00
2022-12-27T23:14:00.426Z,100.00
2022-12-27T23:16:27.417Z,100.00
2022-12-27T23:18:54.264Z,100.00
2022-12-27T23:21:24.074Z,100.00
2022-12-27T23:23:51.960Z,100.00
2022-12-27T23:26:21.322Z,100.00
2022-12-27T23:28:51.296Z,100.00
2022-12-27T23:31:19.158Z,100.00
2022-12-27T23:33:45.783Z,100.00
2022-12-27T23:36:13.443Z,100.00
2022-12-27T23:38:44.256Z,100.00
2022-12-27T23:41:16.459Z,100.00
2022-12-27T23:43:58.528Z,100.00
2022-12-27T23:46:30.939Z,100.00
2022-12-27T23:48:59.125Z,100.00
2022-12-27T23:51:26.453Z,100.00
2022-12-27T23:53:52.935Z,100.00
2022-12-27T23:56:33.817Z,100.00
2022-12-27T23:59:02.991Z,100.00
